Time;durP1;ratioP1;P1;durP2;ratioP2;P2;SDS_P1;SDS_P2;PMS_P1;PMS_P2;Temp;Humidity;BMP_temperature;BMP_pressure;BME280_temperature;BME280_humidity;BME280_pressure;Samples;Min_cycle;Max_cycle;Signal;HPM_P1;HPM_P2
2022/07/30 00:00:19;;;;;;;11.80;8.45;;;21.90;89.50;;;;;;2105257;28;20066;-74
2022/07/30 00:01:20;;;;;;;9.60;7.93;;;21.90;90.00;;;;;;2105212;28;20111;-74
2022/07/30 00:02:20;;;;;;;10.63;7.78;;;21.90;90.20;;;;;;2104739;28;20036;-74
2022/07/30 00:03:21;;;;;;;8.30;7.40;;;21.80;90.30;;;;;;2105577;28;20039;-74
2022/07/30 00:04:23;;;;;;;9.68;7.65;;;21.80;90.60;;;;;;2107877;28;20098;-74
2022/07/30 00:05:24;;;;;;;9.65;7.68;;;21.80;91.00;;;;;;2107235;28;20048;-73
2022/07/30 00:06:24;;;;;;;10.85;7.35;;;21.80;91.30;;;;;;2108368;28;20374;-74
2022/07/30 00:07:25;;;;;;;8.38;7.03;;;21.80;91.60;;;;;;2105386;28;20123;-73
2022/07/30 00:08:26;;;;;;;9.20;7.10;;;21.70;92.00;;;;;;2105226;28;20103;-73
2022/07/30 00:09:26;;;;;;;8.73;6.80;;;21.70;92.40;;;;;;2105388;28;20591;-73
2022/07/30 00:10:27;;;;;;;10.32;7.35;;;21.70;92.70;;;;;;2105493;28;20058;-73
2022/07/30 00:11:28;;;;;;;12.00;7.57;;;21.70;93.00;;;;;;2104648;28;20028;-73
2022/07/30 00:12:28;;;;;;;9.73;7.25;;;21.70;93.60;;;;;;2104854;28;20120;-74
2022/07/30 00:13:29;;;;;;;9.18;7.03;;;21.60;93.90;;;;;;2105398;28;20047;-74
2022/07/30 00:14:31;;;;;;;9.20;7.18;;;21.60;94.60;;;;;;2105177;28;20051;-73
2022/07/30 00:15:32;;;;;;;11.65;7.30;;;21.60;95.20;;;;;;2105076;28;20015;-73
2022/07/30 00:16:33;;;;;;;7.88;7.07;;;21.50;96.00;;;;;;2105188;28;20069;-74
2022/07/30 00:17:33;;;;;;;9.85;6.95;;;21.50;96.80;;;;;;2105205;28;20470;-74
2022/07/30 00:18:34;;;;;;;7.68;6.80;;;21.50;97.70;;;;;;2096189;28;20028;-74
2022/07/30 00:19:35;;;;;;;7.75;6.68;;;21.40;98.80;;;;;;2096207;28;20025;-74
2022/07/30 00:20:39;;;;;;;8.40;7.35;;;21.40;99.90;;;;;;2105381;28;20111;-75
2022/07/30 00:21:39;;;;;;;8.90;6.90;;;21.30;99.90;;;;;;2105393;28;20043;-74
2022/07/30 00:22:40;;;;;;;7.72;6.60;;;21.30;99.90;;;;;;2106059;28;20035;-75
2022/07/30 00:23:41;;;;;;;9.50;6.97;;;21.20;99.90;;;;;;2104776;28;20452;-75
2022/07/30 00:24:42;;;;;;;10.00;6.90;;;21.20;99.90;;;;;;2105106;28;20020;-75
2022/07/30 00:25:43;;;;;;;9.07;7.00;;;21.20;99.90;;;;;;2105014;28;20718;-74
2022/07/30 00:26:44;;;;;;;9.88;6.90;;;21.20;99.90;;;;;;2105232;28;20058;-74
2022/07/30 00:27:45;;;;;;;8.68;6.72;;;21.10;99.90;;;;;;2105275;28;20032;-76
2022/07/30 00:28:46;;;;;;;12.40;7.32;;;21.10;99.90;;;;;;2096604;28;20091;-75
2022/07/30 00:29:48;;;;;;;12.18;7.75;;;21.20;99.90;;;;;;2105297;28;20024;-74
2022/07/30 00:30:52;;;;;;;8.98;7.75;;;21.10;99.90;;;;;;2104596;28;20111;-73
2022/07/30 00:31:53;;;;;;;7.53;6.72;;;21.10;99.90;;;;;;2096591;28;20502;-73
2022/07/30 00:32:53;;;;;;;7.35;6.50;;;21.10;99.90;;;;;;2096071;28;20032;-74
2022/07/30 00:33:54;;;;;;;6.72;6.03;;;21.10;99.90;;;;;;2096365;28;20122;-73
2022/07/30 00:34:55;;;;;;;7.60;6.75;;;21.10;99.90;;;;;;2104623;28;20031;-73
2022/07/30 00:35:55;;;;;;;7.60;6.80;;;21.20;99.90;;;;;;2087945;28;20040;-74
2022/07/30 00:36:56;;;;;;;7.03;6.30;;;21.20;99.90;;;;;;2096295;28;20033;-73
2022/07/30 00:37:57;;;;;;;7.22;6.20;;;21.20;99.90;;;;;;2105308;28;20043;-73
2022/07/30 00:38:58;;;;;;;8.02;6.63;;;21.10;99.90;;;;;;2096472;28;20059;-73
2022/07/30 00:39:58;;;;;;;8.43;7.13;;;21.20;99.90;;;;;;2088191;28;20052;-73
2022/07/30 00:40:59;;;;;;;9.40;7.03;;;21.10;99.90;;;;;;2096391;28;20123;-73
2022/07/30 00:42:02;;;;;;;8.20;6.95;;;21.10;99.90;;;;;;2104607;28;20024;-74
2022/07/30 00:43:03;;;;;;;7.57;6.43;;;21.10;99.90;;;;;;2104556;28;20513;-73
2022/07/30 00:44:04;;;;;;;7.80;6.80;;;21.00;99.90;;;;;;2096089;28;20111;-74
2022/07/30 00:45:06;;;;;;;7.95;7.15;;;21.00;99.90;;;;;;2104485;28;20101;-75
2022/07/30 00:46:07;;;;;;;7.93;6.72;;;21.00;99.90;;;;;;2104678;28;20027;-74
2022/07/30 00:47:08;;;;;;;8.27;7.00;;;21.00;99.90;;;;;;2096361;28;20545;-75
2022/07/30 00:48:13;;;;;;;8.60;7.18;;;21.00;99.90;;;;;;2096262;28;20029;-73
2022/07/30 00:49:14;;;;;;;7.32;6.30;;;20.90;99.90;;;;;;2096448;28;20082;-74
2022/07/30 00:50:15;;;;;;;9.10;6.68;;;20.90;99.90;;;;;;2104699;28;20051;-73
2022/07/30 00:51:16;;;;;;;8.18;6.50;;;20.90;99.90;;;;;;2104999;28;20171;-74
2022/07/30 00:52:17;;;;;;;10.13;6.43;;;20.90;99.90;;;;;;2104262;28;20141;-74
2022/07/30 00:53:18;;;;;;;8.95;6.85;;;20.90;99.90;;;;;;2104456;28;20088;-74
2022/07/30 00:54:20;;;;;;;7.85;6.50;;;20.90;99.90;;;;;;2105199;28;20551;-75
2022/07/30 00:55:20;;;;;;;8.85;7.07;;;20.90;99.90;;;;;;2105234;28;20115;-75
2022/07/30 00:56:21;;;;;;;8.13;6.97;;;20.90;99.90;;;;;;2104423;28;20151;-72
2022/07/30 00:57:22;;;;;;;8.00;7.20;;;20.80;99.90;;;;;;2104880;28;20043;-74
2022/07/30 00:58:22;;;;;;;8.82;7.32;;;20.80;99.90;;;;;;2104172;28;20020;-73
2022/07/30 00:59:26;;;;;;;8.60;7.68;;;20.80;99.90;;;;;;2104295;28;20026;-73
2022/07/30 01:00:27;;;;;;;9.38;7.85;;;20.80;99.90;;;;;;2104999;28;20096;-74
2022/07/30 01:01:30;;;;;;;7.45;6.70;;;20.70;99.90;;;;;;2104996;28;20028;-73
2022/07/30 01:02:30;;;;;;;8.75;7.82;;;20.70;99.90;;;;;;2104271;28;20791;-74
2022/07/30 01:03:31;;;;;;;9.27;7.40;;;20.70;99.90;;;;;;2096125;28;20055;-73
2022/07/30 01:04:32;;;;;;;8.98;7.65;;;20.70;99.90;;;;;;2087585;28;20017;-72
2022/07/30 01:05:33;;;;;;;9.35;7.20;;;20.60;99.90;;;;;;2104076;28;20028;-72
2022/07/30 01:06:34;;;;;;;8.82;7.32;;;20.60;99.90;;;;;;2105045;28;20103;-71
2022/07/30 01:07:35;;;;;;;7.43;6.72;;;20.60;99.90;;;;;;2104638;28;20050;-74
2022/07/30 01:08:36;;;;;;;9.60;7.80;;;20.60;99.90;;;;;;2104532;28;20073;-74
2022/07/30 01:09:38;;;;;;;8.55;7.70;;;20.50;99.90;;;;;;2096423;28;20044;-74
2022/07/30 01:10:39;;;;;;;9.20;8.18;;;20.50;99.90;;;;;;2104712;28;20771;-76
2022/07/30 01:11:41;;;;;;;8.02;7.22;;;20.50;99.90;;;;;;2105302;28;20040;-74
2022/07/30 01:12:44;;;;;;;8.40;7.50;;;20.50;99.90;;;;;;2111038;28;20054;-75
2022/07/30 01:13:45;;;;;;;8.82;7.93;;;20.50;99.90;;;;;;2104428;28;20016;-73
2022/07/30 01:14:46;;;;;;;10.23;7.93;;;20.50;99.90;;;;;;2103318;28;20840;-75
2022/07/30 01:15:47;;;;;;;12.00;8.38;;;20.40;99.90;;;;;;2113458;28;20024;-75
2022/07/30 01:16:49;;;;;;;8.50;7.70;;;20.40;99.90;;;;;;2113930;28;20034;-75
2022/07/30 01:17:55;;;;;;;9.63;7.82;;;20.40;99.90;;;;;;2114039;28;20406;-76
2022/07/30 01:20:25;;;;;;;8.65;7.75;;;20.40;99.90;;;;;;2106573;28;20040;-76
2022/07/30 01:21:40;;;;;;;10.18;8.20;;;20.40;99.90;;;;;;2108921;28;20242;-74
2022/07/30 01:22:51;;;;;;;10.85;8.90;;;20.30;99.90;;;;;;2101102;28;20028;-75
2022/07/30 01:23:55;;;;;;;10.18;8.88;;;20.30;99.90;;;;;;2101951;28;20036;-77
2022/07/30 01:25:28;;;;;;;10.73;7.68;;;20.30;99.90;;;;;;2102213;28;20020;-76
2022/07/30 01:26:30;;;;;;;11.88;8.70;;;20.30;99.90;;;;;;2109926;28;20028;-76
2022/07/30 01:27:53;;;;;;;9.95;8.95;;;20.20;99.90;;;;;;2100937;28;20024;-76
2022/07/30 01:28:55;;;;;;;9.60;8.07;;;20.20;99.90;;;;;;2102178;28;20522;-76
2022/07/30 01:30:00;;;;;;;10.73;8.38;;;20.20;99.90;;;;;;2099044;28;20083;-75
2022/07/30 01:31:02;;;;;;;10.43;8.07;;;20.20;99.90;;;;;;2099004;28;20558;-76
2022/07/30 01:32:06;;;;;;;9.38;8.32;;;20.20;99.90;;;;;;2099081;28;20146;-76
2022/07/30 01:33:11;;;;;;;10.63;8.82;;;20.20;99.90;;;;;;2108551;28;20090;-77
2022/07/30 01:34:13;;;;;;;9.98;8.85;;;20.20;99.90;;;;;;2108379;28;20090;-77
2022/07/30 01:35:19;;;;;;;9.77;8.50;;;20.20;99.90;;;;;;2109057;28;20032;-76
2022/07/30 01:36:23;;;;;;;13.30;9.13;;;20.10;99.90;;;;;;2107907;28;20024;-76
2022/07/30 01:37:26;;;;;;;9.55;8.63;;;20.10;99.90;;;;;;2098566;28;20031;-77
2022/07/30 01:38:29;;;;;;;9.27;8.30;;;20.10;99.90;;;;;;2106788;28;20036;-75
2022/07/30 01:39:31;;;;;;;9.98;8.98;;;20.10;99.90;;;;;;2106018;28;20032;-75
2022/07/30 01:40:33;;;;;;;11.30;8.95;;;20.00;99.90;;;;;;2098217;28;20054;-75
2022/07/30 01:41:34;;;;;;;9.45;8.45;;;20.00;99.90;;;;;;2098551;28;20120;-77
2022/07/30 01:42:37;;;;;;;8.80;7.90;;;20.00;99.90;;;;;;2107178;28;20486;-75
2022/07/30 01:43:39;;;;;;;8.07;7.28;;;20.00;99.90;;;;;;2107064;28;20101;-75
2022/07/30 01:44:41;;;;;;;9.90;8.15;;;20.00;99.90;;;;;;2107127;28;20172;-75
2022/07/30 01:45:43;;;;;;;13.00;8.88;;;20.00;99.90;;;;;;2106875;28;20148;-75
2022/07/30 01:46:46;;;;;;;9.00;8.10;;;20.00;99.90;;;;;;2098623;28;20069;-75
2022/07/30 01:47:48;;;;;;;10.43;7.75;;;20.00;99.90;;;;;;2090471;28;20059;-76
2022/07/30 01:48:50;;;;;;;8.93;8.05;;;20.00;99.90;;;;;;2106995;28;20016;-76
2022/07/30 01:49:53;;;;;;;9.32;7.63;;;20.00;99.90;;;;;;2106825;28;20028;-76
2022/07/30 01:50:59;;;;;;;8.27;7.38;;;20.00;99.90;;;;;;2098662;28;20024;-75
2022/07/30 01:52:02;;;;;;;9.10;8.20;;;20.00;99.90;;;;;;2091521;28;20021;-76
2022/07/30 01:53:04;;;;;;;8.80;7.38;;;20.10;99.90;;;;;;2090852;28;20025;-76
2022/07/30 01:54:09;;;;;;;8.30;7.50;;;20.00;99.90;;;;;;2090720;28;20029;-75
2022/07/30 01:55:15;;;;;;;10.15;7.70;;;20.00;99.90;;;;;;2099386;28;20056;-76
2022/07/30 01:56:20;;;;;;;9.95;8.95;;;20.00;99.90;;;;;;2107029;28;20111;-76
2022/07/30 01:57:21;;;;;;;9.35;8.40;;;20.00;99.90;;;;;;2107017;28;20089;-76
2022/07/30 01:58:26;;;;;;;9.35;7.90;;;20.00;99.90;;;;;;2106851;28;20028;-76
2022/07/30 01:59:32;;;;;;;10.35;9.00;;;20.00;99.90;;;;;;2107184;28;20084;-75
2022/07/30 02:00:37;;;;;;;10.95;8.18;;;20.00;99.90;;;;;;2098904;28;20032;-76
2022/07/30 02:04:03;;;;;;;9.57;8.27;;;20.00;99.90;;;;;;2107670;28;20044;-79
2022/07/30 02:05:04;;;;;;;10.55;8.30;;;19.90;99.90;;;;;;2107117;28;20029;-76
2022/07/30 02:06:14;;;;;;;9.65;8.57;;;19.90;99.90;;;;;;2098731;28;20097;-77
2022/07/30 02:07:28;;;;;;;11.25;9.27;;;19.90;99.90;;;;;;2100570;28;20025;-78
2022/07/30 02:08:41;;;;;;;10.20;9.20;;;19.90;99.90;;;;;;2107574;28;20036;-76
2022/07/30 02:10:24;;;;;;;9.85;8.85;;;19.90;99.90;;;;;;2107786;28;20081;-78
2022/07/30 02:12:49;;;;;;;9.30;7.50;;;19.80;99.90;;;;;;2102564;28;20027;-77
2022/07/30 02:13:56;;;;;;;10.93;8.57;;;19.80;99.90;;;;;;2100090;28;20407;-76
2022/07/30 02:15:09;;;;;;;11.10;8.80;;;19.80;99.90;;;;;;2099806;28;20020;-77
2022/07/30 02:16:20;;;;;;;9.65;8.43;;;19.80;99.90;;;;;;2107502;28;20024;-77
2022/07/30 02:17:27;;;;;;;9.95;8.95;;;19.80;99.90;;;;;;2099562;28;20039;-77
2022/07/30 02:18:55;;;;;;;11.48;8.48;;;19.80;99.90;;;;;;2091431;28;20506;-77
2022/07/30 02:19:57;;;;;;;10.45;8.30;;;19.80;99.90;;;;;;2098553;28;20633;-78
2022/07/30 02:21:03;;;;;;;9.13;8.23;;;19.80;99.90;;;;;;2099431;28;20036;-78
2022/07/30 02:22:08;;;;;;;10.75;8.93;;;19.80;99.90;;;;;;2108067;28;20043;-76
2022/07/30 02:23:11;;;;;;;10.63;8.90;;;19.80;99.90;;;;;;2109848;28;20092;-76
2022/07/30 02:24:15;;;;;;;11.13;9.05;;;19.80;99.90;;;;;;2108255;28;20049;-77
2022/07/30 02:25:20;;;;;;;11.00;8.85;;;19.80;99.90;;;;;;2108048;28;20118;-76
2022/07/30 02:26:23;;;;;;;11.15;9.50;;;19.70;99.90;;;;;;2108196;28;20099;-77
2022/07/30 02:27:29;;;;;;;9.43;8.52;;;19.70;99.90;;;;;;2100417;28;20529;-77
2022/07/30 02:28:33;;;;;;;8.82;7.97;;;19.70;99.90;;;;;;2101469;28;20029;-76
2022/07/30 02:29:37;;;;;;;11.48;8.65;;;19.70;99.90;;;;;;2100663;28;20059;-78
2022/07/30 02:30:52;;;;;;;10.60;9.52;;;19.70;99.90;;;;;;2099896;28;20024;-77
2022/07/30 02:31:56;;;;;;;11.82;9.52;;;19.60;99.90;;;;;;2092440;28;20116;-78
2022/07/30 02:33:09;;;;;;;11.35;9.30;;;19.60;99.90;;;;;;2091539;28;20028;-77
2022/07/30 02:34:12;;;;;;;9.45;8.45;;;19.60;99.90;;;;;;2100709;28;20032;-77
2022/07/30 02:35:19;;;;;;;10.38;9.38;;;19.60;99.90;;;;;;2100176;28;20184;-77
2022/07/30 02:36:21;;;;;;;11.35;8.50;;;19.60;99.90;;;;;;2101218;28;20021;-77
2022/07/30 02:37:24;;;;;;;10.32;7.97;;;19.60;99.90;;;;;;2107862;28;20032;-78
2022/07/30 02:38:27;;;;;;;10.25;9.15;;;19.60;99.90;;;;;;2098881;28;20032;-78
2022/07/30 02:39:29;;;;;;;10.07;9.07;;;19.60;99.90;;;;;;2090722;28;20083;-77
2022/07/30 02:40:31;;;;;;;9.60;8.70;;;19.60;99.90;;;;;;2099428;28;20033;-77
2022/07/30 02:41:35;;;;;;;9.93;8.93;;;19.60;99.90;;;;;;2098794;28;20021;-77
2022/07/30 02:42:37;;;;;;;9.80;8.52;;;19.60;99.90;;;;;;2099218;28;20512;-78
2022/07/30 02:43:40;;;;;;;11.68;9.57;;;19.60;99.90;;;;;;2099367;28;20048;-77
2022/07/30 02:44:44;;;;;;;11.00;9.57;;;19.60;99.90;;;;;;2099788;28;20028;-77
2022/07/30 02:45:47;;;;;;;11.25;9.43;;;19.60;99.90;;;;;;2108598;28;20039;-78
2022/07/30 02:46:50;;;;;;;11.00;9.90;;;19.50;99.90;;;;;;2101084;28;20050;-78
2022/07/30 02:48:26;;;;;;;9.88;8.88;;;19.50;99.90;;;;;;2108646;28;20083;-78
2022/07/30 02:49:30;;;;;;;10.23;9.20;;;19.50;99.90;;;;;;2104472;28;20034;-79
2022/07/30 02:50:32;;;;;;;10.45;9.00;;;19.50;99.90;;;;;;2099894;28;20020;-79
2022/07/30 02:51:34;;;;;;;11.57;9.32;;;19.50;99.90;;;;;;2099706;28;20052;-79
2022/07/30 02:52:36;;;;;;;11.63;10.43;;;19.50;99.90;;;;;;2091550;28;20025;-78
2022/07/30 02:53:38;;;;;;;10.82;9.80;;;19.50;99.90;;;;;;2091122;28;20522;-77
2022/07/30 02:54:41;;;;;;;10.43;8.60;;;19.50;99.90;;;;;;2098768;28;20032;-78
2022/07/30 02:55:44;;;;;;;8.90;8.00;;;19.50;99.90;;;;;;2107437;28;20489;-78
2022/07/30 02:56:48;;;;;;;10.38;9.27;;;19.50;99.90;;;;;;2098150;28;20596;-77
2022/07/30 02:57:52;;;;;;;10.50;9.40;;;19.50;99.90;;;;;;2090492;28;20025;-77
2022/07/30 02:58:56;;;;;;;10.57;9.48;;;19.50;99.90;;;;;;2090311;28;20475;-78
2022/07/30 02:59:58;;;;;;;11.82;9.50;;;19.50;99.90;;;;;;2090016;28;20108;-77
2022/07/30 03:01:00;;;;;;;9.95;8.95;;;19.50;99.90;;;;;;2089912;28;20146;-78
2022/07/30 03:02:03;;;;;;;10.00;9.00;;;19.50;99.90;;;;;;2090054;28;20710;-78
2022/07/30 03:03:09;;;;;;;10.07;8.90;;;19.50;99.90;;;;;;2097968;28;20048;-76
2022/07/30 03:04:12;;;;;;;10.75;9.02;;;19.50;99.90;;;;;;2098734;28;20024;-76
2022/07/30 03:05:14;;;;;;;9.90;8.07;;;19.50;99.90;;;;;;2106141;28;20031;-76
2022/07/30 03:06:16;;;;;;;9.15;8.25;;;19.50;99.90;;;;;;2105965;28;20020;-76
2022/07/30 03:07:19;;;;;;;12.75;9.18;;;19.50;99.90;;;;;;2106707;28;20027;-76
2022/07/30 03:08:20;;;;;;;8.95;8.05;;;19.50;99.90;;;;;;2106118;28;20067;-76
2022/07/30 03:09:22;;;;;;;8.45;7.65;;;19.50;99.90;;;;;;2098002;28;20020;-76
2022/07/30 03:10:26;;;;;;;8.10;7.30;;;19.50;99.90;;;;;;2105980;28;20031;-77
2022/07/30 03:11:29;;;;;;;9.40;8.45;;;19.60;99.90;;;;;;2106302;28;20032;-77
2022/07/30 03:12:31;;;;;;;10.35;8.60;;;19.60;99.90;;;;;;2097719;28;20110;-77
2022/07/30 03:13:32;;;;;;;10.80;9.50;;;19.60;99.90;;;;;;2098149;28;20111;-77
2022/07/30 03:14:33;;;;;;;9.88;8.55;;;19.50;99.90;;;;;;2106575;28;20024;-78
2022/07/30 03:15:36;;;;;;;8.85;7.95;;;19.50;99.90;;;;;;2098617;28;20026;-77
2022/07/30 03:16:41;;;;;;;8.68;7.80;;;19.50;99.90;;;;;;2090189;28;20029;-77
2022/07/30 03:17:47;;;;;;;9.27;8.25;;;19.60;99.90;;;;;;2090714;28;20040;-77
2022/07/30 03:18:49;;;;;;;9.15;8.15;;;19.60;99.90;;;;;;2098230;28;20054;-76
2022/07/30 03:19:53;;;;;;;8.73;7.82;;;19.60;99.90;;;;;;2097750;28;20025;-77
2022/07/30 03:20:57;;;;;;;9.38;8.20;;;19.60;99.90;;;;;;2098030;28;20024;-76
2022/07/30 03:22:01;;;;;;;12.55;9.02;;;19.60;99.90;;;;;;2106184;28;20036;-76
2022/07/30 03:23:03;;;;;;;11.88;8.95;;;19.60;99.90;;;;;;2106440;28;20103;-77
2022/07/30 03:24:09;;;;;;;10.40;9.32;;;19.50;99.90;;;;;;2106335;28;20116;-77
2022/07/30 03:25:15;;;;;;;9.70;8.70;;;19.50;99.90;;;;;;2106640;28;20161;-77
2022/07/30 03:26:20;;;;;;;8.93;8.02;;;19.50;99.90;;;;;;2106393;28;20428;-76
2022/07/30 03:27:24;;;;;;;10.63;9.52;;;19.50;99.90;;;;;;2106391;28;20024;-77
2022/07/30 03:28:29;;;;;;;10.50;9.40;;;19.50;99.90;;;;;;2099828;28;20043;-77
2022/07/30 03:29:38;;;;;;;10.45;8.65;;;19.50;99.90;;;;;;2100777;28;20059;-77
2022/07/30 03:30:42;;;;;;;10.63;8.93;;;19.50;99.90;;;;;;2099964;28;20059;-78
2022/07/30 03:31:44;;;;;;;11.15;8.90;;;19.50;99.90;;;;;;2100682;28;20639;-78
2022/07/30 03:32:48;;;;;;;11.82;9.30;;;19.50;99.90;;;;;;2110667;28;20221;-78
2022/07/30 03:33:49;;;;;;;9.52;8.57;;;19.50;99.90;;;;;;2099600;28;20673;-78
2022/07/30 03:34:50;;;;;;;10.63;9.50;;;19.50;99.90;;;;;;2099322;28;20174;-76
2022/07/30 03:35:52;;;;;;;9.80;8.80;;;19.50;99.90;;;;;;2107203;28;20107;-77
2022/07/30 03:36:54;;;;;;;10.43;9.27;;;19.50;99.90;;;;;;2099323;28;20050;-76
2022/07/30 03:37:56;;;;;;;11.60;8.90;;;19.50;99.90;;;;;;2099538;28;20394;-77
2022/07/30 03:38:57;;;;;;;10.07;8.35;;;19.50;99.90;;;;;;2099191;28;20025;-78
2022/07/30 03:39:59;;;;;;;9.20;8.10;;;19.50;99.90;;;;;;2091094;28;20028;-78
2022/07/30 03:41:01;;;;;;;9.25;8.32;;;19.50;99.90;;;;;;2099069;28;20033;-78
2022/07/30 03:42:04;;;;;;;11.85;10.07;;;19.50;99.90;;;;;;2106949;28;20039;-76
2022/07/30 03:43:10;;;;;;;10.77;9.60;;;19.50;99.90;;;;;;2099056;28;20074;-77
2022/07/30 03:44:11;;;;;;;10.45;9.32;;;19.50;99.90;;;;;;2099610;28;20041;-77
2022/07/30 03:45:13;;;;;;;10.07;8.75;;;19.40;99.90;;;;;;2098962;28;20032;-77
2022/07/30 03:46:15;;;;;;;9.45;8.48;;;19.40;99.90;;;;;;2099139;28;20032;-77
2022/07/30 03:47:21;;;;;;;8.85;7.95;;;19.40;99.90;;;;;;2099094;28;20025;-77
2022/07/30 03:48:22;;;;;;;9.10;7.82;;;19.50;99.90;;;;;;2098660;28;20056;-76
2022/07/30 03:49:25;;;;;;;9.40;8.50;;;19.50;99.90;;;;;;2099036;28;20017;-77
2022/07/30 03:50:26;;;;;;;9.48;8.48;;;19.50;99.90;;;;;;2098788;28;20035;-77
2022/07/30 03:51:27;;;;;;;9.38;8.45;;;19.50;99.90;;;;;;2098844;28;20039;-77
2022/07/30 03:52:30;;;;;;;11.35;9.93;;;19.40;99.90;;;;;;2106971;28;20039;-77
2022/07/30 03:53:32;;;;;;;11.10;10.00;;;19.40;99.90;;;;;;2099031;28;20498;-78
2022/07/30 03:54:58;;;;;;;9.77;8.85;;;19.40;99.90;;;;;;2106682;28;20036;-76
2022/07/30 03:56:19;;;;;;;10.65;9.55;;;19.40;99.90;;;;;;2083362;28;20039;-77
2022/07/30 03:57:47;;;;;;;12.30;8.70;;;19.40;99.90;;;;;;2105416;28;20043;-76
2022/07/30 03:58:49;;;;;;;11.38;9.88;;;19.50;99.90;;;;;;2102438;28;20127;-76
2022/07/30 03:59:50;;;;;;;12.55;9.48;;;19.50;99.90;;;;;;2098553;28;20098;-76
2022/07/30 04:00:52;;;;;;;11.20;10.00;;;19.50;99.90;;;;;;2098486;28;20257;-76
2022/07/30 04:01:53;;;;;;;9.80;8.85;;;19.40;99.90;;;;;;2097643;28;20033;-75
2022/07/30 04:03:30;;;;;;;10.55;9.45;;;19.50;99.90;;;;;;2105115;28;20040;-74
2022/07/30 04:04:41;;;;;;;11.50;9.70;;;19.50;99.90;;;;;;2105684;28;20032;-74
2022/07/30 04:05:42;;;;;;;12.95;10.57;;;19.50;99.90;;;;;;2098801;28;20021;-75
2022/07/30 04:06:50;;;;;;;12.63;9.57;;;19.50;99.90;;;;;;2099624;28;20025;-75
2022/07/30 04:07:53;;;;;;;10.57;9.55;;;19.40;99.90;;;;;;2098055;28;20143;-75
2022/07/30 04:08:54;;;;;;;12.13;9.98;;;19.40;99.90;;;;;;2098314;28;20029;-74
2022/07/30 04:09:56;;;;;;;10.45;9.20;;;19.40;99.90;;;;;;2088939;28;20029;-74
2022/07/30 04:11:25;;;;;;;11.10;9.80;;;19.40;99.90;;;;;;2092628;28;20438;-74
2022/07/30 04:12:46;;;;;;;11.55;9.50;;;19.40;99.90;;;;;;2105893;28;20390;-75
2022/07/30 04:13:47;;;;;;;9.98;8.35;;;19.40;99.90;;;;;;2105607;28;20048;-74
2022/07/30 04:14:52;;;;;;;12.30;9.57;;;19.50;99.90;;;;;;2097061;28;20595;-73
2022/07/30 04:16:13;;;;;;;11.55;10.10;;;19.40;99.90;;;;;;2098078;28;20055;-73
2022/07/30 04:17:16;;;;;;;10.20;8.60;;;19.50;99.90;;;;;;2096877;28;20079;-73
2022/07/30 04:18:18;;;;;;;9.85;8.85;;;19.50;99.90;;;;;;2089561;28;20031;-74
2022/07/30 04:19:27;;;;;;;11.73;9.73;;;19.50;99.90;;;;;;2097072;28;20067;-74
2022/07/30 04:20:38;;;;;;;11.88;10.02;;;19.50;99.90;;;;;;2097792;28;20024;-74
2022/07/30 04:21:41;;;;;;;10.07;8.80;;;19.50;99.90;;;;;;2105138;28;20109;-74
2022/07/30 04:22:44;;;;;;;8.85;7.95;;;19.50;99.90;;;;;;2101366;28;20116;-74
2022/07/30 04:23:48;;;;;;;9.20;8.30;;;19.50;99.90;;;;;;2094514;28;20084;-74
2022/07/30 04:24:51;;;;;;;11.15;8.95;;;19.50;99.90;;;;;;2103829;28;20048;-75
2022/07/30 04:25:52;;;;;;;9.63;8.50;;;19.50;99.90;;;;;;2107304;28;20032;-75
2022/07/30 04:26:53;;;;;;;9.45;8.52;;;19.50;99.90;;;;;;2106272;28;20027;-75
2022/07/30 04:27:54;;;;;;;9.82;8.73;;;19.50;99.90;;;;;;2106670;28;20489;-76
2022/07/30 04:28:56;;;;;;;9.75;8.75;;;19.60;99.90;;;;;;2098087;28;20044;-76
2022/07/30 04:29:57;;;;;;;9.93;8.93;;;19.50;99.90;;;;;;2081887;28;20108;-76
2022/07/30 04:30:58;;;;;;;14.73;10.90;;;19.60;99.90;;;;;;2081875;28;20543;-76
2022/07/30 04:32:00;;;;;;;12.65;9.98;;;19.50;99.90;;;;;;2081138;28;20491;-76
2022/07/30 04:33:12;;;;;;;10.98;9.88;;;19.50;99.90;;;;;;2100234;28;20025;-75
2022/07/30 04:35:03;;;;;;;12.60;10.85;;;19.50;99.90;;;;;;2093549;28;20036;-75
2022/07/30 04:36:34;;;;;;;11.38;10.00;;;19.40;99.90;;;;;;2097927;28;20033;-76
2022/07/30 04:37:35;;;;;;;10.60;9.50;;;19.40;99.90;;;;;;2106228;28;20036;-77
2022/07/30 04:38:36;;;;;;;10.95;9.02;;;19.40;99.90;;;;;;2098118;28;20039;-75
2022/07/30 04:39:36;;;;;;;10.40;9.13;;;19.40;99.90;;;;;;2098238;28;20048;-76
2022/07/30 04:40:37;;;;;;;11.38;9.05;;;19.40;99.90;;;;;;2106774;28;20080;-76
2022/07/30 04:41:39;;;;;;;12.80;10.45;;;19.40;99.90;;;;;;2106197;28;20386;-76
2022/07/30 04:43:06;;;;;;;11.20;8.93;;;19.40;99.90;;;;;;2104439;28;20024;-75
2022/07/30 04:44:09;;;;;;;12.48;9.98;;;19.40;99.90;;;;;;2106288;28;20062;-75
2022/07/30 04:45:19;;;;;;;9.77;8.88;;;19.40;99.90;;;;;;2106415;28;20105;-77
2022/07/30 04:46:28;;;;;;;10.02;8.60;;;19.50;99.90;;;;;;2101863;28;20094;-78
2022/07/30 04:47:29;;;;;;;10.07;8.85;;;19.50;99.90;;;;;;2094518;28;20124;-79
2022/07/30 04:48:50;;;;;;;10.50;8.70;;;19.50;99.90;;;;;;2109541;28;20036;-77
2022/07/30 04:49:53;;;;;;;9.23;8.32;;;19.50;99.90;;;;;;2101278;28;20024;-77
2022/07/30 04:50:58;;;;;;;11.85;10.63;;;19.50;99.90;;;;;;2093222;28;20056;-77
2022/07/30 04:52:00;;;;;;;10.43;9.43;;;19.50;99.90;;;;;;2094133;28;20048;-78
2022/07/30 04:53:02;;;;;;;9.80;8.80;;;19.50;99.90;;;;;;2101227;28;20175;-77
2022/07/30 04:54:12;;;;;;;13.13;10.43;;;19.50;99.90;;;;;;2101675;28;20053;-76
2022/07/30 04:55:13;;;;;;;11.48;10.30;;;19.50;99.90;;;;;;2103183;28;20033;-77
2022/07/30 04:56:18;;;;;;;10.57;9.48;;;19.50;99.90;;;;;;2100976;28;20563;-76
2022/07/30 04:57:19;;;;;;;10.07;8.50;;;19.50;99.90;;;;;;2109039;28;20064;-77
2022/07/30 04:58:21;;;;;;;10.18;9.18;;;19.50;99.90;;;;;;2100738;28;20025;-77
2022/07/30 04:59:24;;;;;;;10.45;9.38;;;19.50;99.90;;;;;;2092973;28;20636;-77
2022/07/30 05:00:24;;;;;;;12.20;9.85;;;19.50;99.90;;;;;;2101030;28;20414;-76
2022/07/30 05:01:32;;;;;;;11.38;9.27;;;19.50;99.90;;;;;;2101149;28;20029;-76
2022/07/30 05:02:38;;;;;;;10.50;9.25;;;19.60;99.90;;;;;;2109470;28;20128;-76
2022/07/30 05:03:39;;;;;;;10.20;9.20;;;19.50;99.90;;;;;;2093508;28;20029;-77
2022/07/30 05:04:41;;;;;;;11.02;9.00;;;19.60;99.90;;;;;;2092853;28;20710;-76
2022/07/30 05:05:44;;;;;;;8.93;8.02;;;19.60;99.90;;;;;;2101008;28;20090;-77
2022/07/30 05:06:46;;;;;;;11.57;10.10;;;19.60;99.90;;;;;;2109541;28;20020;-77
2022/07/30 05:07:47;;;;;;;11.32;9.90;;;19.60;99.90;;;;;;2109843;28;20032;-77
2022/07/30 05:08:49;;;;;;;11.90;9.48;;;19.60;99.90;;;;;;2109575;28;20078;-77
2022/07/30 05:09:49;;;;;;;14.32;10.57;;;19.60;99.90;;;;;;2101158;28;20024;-77
2022/07/30 05:10:51;;;;;;;11.20;9.55;;;19.50;99.90;;;;;;2100966;28;20078;-75
2022/07/30 05:11:52;;;;;;;9.95;9.05;;;19.50;99.90;;;;;;2099977;28;20087;-75
2022/07/30 05:12:53;;;;;;;9.50;8.55;;;19.60;99.90;;;;;;2108463;28;20157;-75
2022/07/30 05:13:57;;;;;;;10.43;9.32;;;19.60;99.90;;;;;;2109862;28;20028;-76
2022/07/30 05:14:57;;;;;;;12.50;9.48;;;19.60;99.90;;;;;;2109408;28;20133;-76
2022/07/30 05:15:58;;;;;;;12.50;9.95;;;19.60;99.90;;;;;;2101338;28;20499;-77
2022/07/30 05:17:00;;;;;;;11.07;9.90;;;19.60;99.90;;;;;;2103308;28;20028;-77
2022/07/30 05:18:02;;;;;;;11.57;10.38;;;19.50;99.90;;;;;;2094555;28;20040;-77
2022/07/30 05:19:11;;;;;;;12.50;10.63;;;19.50;99.90;;;;;;2096713;28;20145;-77
2022/07/30 05:20:14;;;;;;;11.75;10.60;;;19.50;99.90;;;;;;2093994;28;20604;-77
2022/07/30 05:21:41;;;;;;;11.38;9.60;;;19.50;99.90;;;;;;2102712;28;20039;-76
2022/07/30 05:22:42;;;;;;;10.13;8.98;;;19.50;99.90;;;;;;2110667;28;20502;-76
2022/07/30 05:23:47;;;;;;;11.07;9.75;;;19.50;99.90;;;;;;2103425;28;20029;-78
2022/07/30 05:25:09;;;;;;;9.90;8.90;;;19.50;99.90;;;;;;2101301;28;20032;-80
2022/07/30 05:26:11;;;;;;;10.45;9.45;;;19.50;99.90;;;;;;2105679;28;20509;-79
2022/07/30 05:27:16;;;;;;;12.98;11.57;;;19.50;99.90;;;;;;2103499;28;20020;-77
2022/07/30 05:28:17;;;;;;;11.18;10.05;;;19.50;99.90;;;;;;2103053;28;20047;-80
2022/07/30 05:29:20;;;;;;;13.32;10.88;;;19.50;99.90;;;;;;2094525;28;20013;-78
2022/07/30 05:30:29;;;;;;;10.77;9.68;;;19.40;99.90;;;;;;2111012;28;20028;-77
2022/07/30 05:31:33;;;;;;;13.05;11.75;;;19.40;99.90;;;;;;2102220;28;20047;-78
2022/07/30 05:32:36;;;;;;;15.18;12.18;;;19.40;99.90;;;;;;2094904;28;20055;-76
2022/07/30 05:33:37;;;;;;;11.82;10.63;;;19.30;99.90;;;;;;2100034;28;20028;-73
2022/07/30 05:34:37;;;;;;;15.90;11.75;;;19.30;99.90;;;;;;2100293;28;20028;-75
2022/07/30 05:35:38;;;;;;;13.52;11.50;;;19.30;99.90;;;;;;2100845;28;20028;-75
2022/07/30 05:36:45;;;;;;;14.32;11.05;;;19.30;99.90;;;;;;2096917;28;20027;-76
2022/07/30 05:37:48;;;;;;;16.58;11.77;;;19.30;99.90;;;;;;2095215;28;20041;-77